Time;durP1;ratioP1;P1;durP2;ratioP2;P2;SDS_P1;SDS_P2;PMS_P1;PMS_P2;Temp;Humidity;BMP_temperature;BMP_pressure;BME280_temperature;BME280_humidity;BME280_pressure;Samples;Min_cycle;Max_cycle;Signal;HPM_P1;HPM_P2
2021/05/19 00:00:21;;;;;;;3.72;1.92;;;16.30;74.00;;;;;;5017518;28;20026;-67
2021/05/19 00:02:47;;;;;;;4.03;1.77;;;16.30;74.10;;;;;;5035461;28;20025;-66
2021/05/19 00:05:13;;;;;;;3.75;1.63;;;16.30;74.00;;;;;;5035229;28;20032;-65
2021/05/19 00:07:39;;;;;;;3.97;1.60;;;16.30;74.00;;;;;;5035393;28;20061;-66
2021/05/19 00:10:07;;;;;;;3.58;1.65;;;16.30;74.00;;;;;;5016863;28;20048;-66
2021/05/19 00:12:33;;;;;;;3.67;1.75;;;16.30;74.00;;;;;;5034826;28;20029;-65
2021/05/19 00:14:59;;;;;;;4.35;1.65;;;16.30;74.00;;;;;;5034994;28;20024;-66
2021/05/19 00:17:24;;;;;;;4.28;1.77;;;16.30;74.00;;;;;;5034890;28;20416;-66
2021/05/19 00:19:52;;;;;;;3.78;1.58;;;16.30;74.00;;;;;;5034716;28;20029;-66
2021/05/19 00:22:17;;;;;;;4.93;1.70;;;16.30;74.00;;;;;;5012975;28;20029;-66
2021/05/19 00:24:43;;;;;;;4.10;1.77;;;16.30;74.00;;;;;;5013771;28;20041;-66
2021/05/19 00:27:08;;;;;;;5.18;1.83;;;16.30;74.00;;;;;;5015222;28;20057;-66
2021/05/19 00:29:34;;;;;;;3.63;1.60;;;16.30;74.00;;;;;;5014801;28;20026;-66
2021/05/19 00:31:59;;;;;;;5.03;1.70;;;16.30;74.00;;;;;;5015129;28;20474;-66
2021/05/19 00:34:25;;;;;;;3.42;1.60;;;16.30;74.00;;;;;;5014335;28;20531;-66
2021/05/19 00:36:50;;;;;;;3.35;1.55;;;16.30;74.00;;;;;;5015109;28;20036;-66
2021/05/19 00:39:16;;;;;;;3.85;1.50;;;16.30;74.10;;;;;;5013018;28;20026;-66
2021/05/19 00:41:44;;;;;;;4.25;1.67;;;16.30;74.10;;;;;;5014814;28;20030;-66
2021/05/19 00:44:13;;;;;;;4.68;1.40;;;16.20;74.00;;;;;;5026185;28;20665;-66
2021/05/19 00:46:43;;;;;;;4.45;1.52;;;16.20;74.00;;;;;;4995334;28;20034;-66
2021/05/19 00:49:09;;;;;;;4.45;1.90;;;16.20;74.10;;;;;;5003452;28;20030;-67
2021/05/19 00:51:34;;;;;;;4.53;1.55;;;16.20;74.10;;;;;;5004345;28;20489;-66
2021/05/19 00:54:00;;;;;;;3.33;1.50;;;16.20;74.10;;;;;;4993710;28;20557;-66
2021/05/19 00:56:26;;;;;;;4.32;1.50;;;16.20;74.10;;;;;;5011239;28;20386;-66
2021/05/19 00:58:56;;;;;;;5.57;1.77;;;16.20;74.10;;;;;;5009573;28;20156;-66
2021/05/19 01:01:22;;;;;;;3.53;1.55;;;16.20;74.20;;;;;;5014670;28;20030;-67
2021/05/19 01:03:49;;;;;;;2.92;1.50;;;16.20;74.20;;;;;;5011807;28;20026;-66
2021/05/19 01:06:34;;;;;;;5.35;1.58;;;16.20;74.20;;;;;;5007901;28;20031;-67
2021/05/19 01:11:44;;;;;;;3.08;1.45;;;16.10;74.30;;;;;;5014709;28;20091;-65
2021/05/19 01:14:09;;;;;;;4.38;1.60;;;16.10;74.30;;;;;;5012558;28;20105;-66
2021/05/19 01:16:35;;;;;;;5.15;1.80;;;16.10;74.30;;;;;;5013076;28;20420;-65
2021/05/19 01:19:00;;;;;;;3.67;1.60;;;16.10;74.50;;;;;;5004558;28;20026;-65
2021/05/19 01:21:28;;;;;;;3.88;1.30;;;16.10;74.40;;;;;;5001617;28;20455;-65
2021/05/19 01:23:53;;;;;;;3.78;1.40;;;16.10;74.50;;;;;;5016884;28;20065;-66
2021/05/19 01:26:19;;;;;;;3.50;1.50;;;16.10;74.50;;;;;;5034099;28;20057;-66
2021/05/19 01:28:45;;;;;;;2.63;1.30;;;16.10;74.50;;;;;;5033571;28;20039;-66
2021/05/19 01:31:11;;;;;;;2.55;1.20;;;16.10;74.60;;;;;;5032307;28;20036;-67
2021/05/19 01:33:38;;;;;;;3.40;1.40;;;16.10;74.60;;;;;;5031312;28;20032;-66
2021/05/19 01:36:04;;;;;;;3.05;1.42;;;16.10;74.60;;;;;;5033670;28;20033;-66
2021/05/19 01:38:30;;;;;;;2.60;1.42;;;16.00;74.60;;;;;;5032645;28;20025;-66
2021/05/19 01:40:55;;;;;;;3.70;1.45;;;16.00;74.60;;;;;;5032473;28;20543;-66
2021/05/19 01:43:32;;;;;;;4.63;1.60;;;16.10;74.70;;;;;;5015354;28;20029;-65
2021/05/19 01:46:00;;;;;;;3.25;1.50;;;16.00;74.60;;;;;;5033075;28;20044;-65
2021/05/19 01:48:26;;;;;;;2.80;1.42;;;16.00;74.70;;;;;;5015610;28;20108;-66
2021/05/19 01:50:51;;;;;;;4.82;1.40;;;16.00;74.80;;;;;;5032994;28;20096;-66
2021/05/19 01:53:18;;;;;;;3.97;1.75;;;16.00;74.80;;;;;;5015555;28;20592;-67
2021/05/19 01:55:43;;;;;;;3.85;1.48;;;16.00;74.90;;;;;;5014995;28;20033;-66
2021/05/19 01:58:09;;;;;;;2.85;1.48;;;16.00;74.90;;;;;;5032866;28;20029;-67
2021/05/19 02:00:34;;;;;;;3.90;1.50;;;16.00;74.90;;;;;;5015279;28;20108;-65
2021/05/19 02:03:06;;;;;;;3.67;1.60;;;16.00;74.90;;;;;;5032886;28;20036;-65
2021/05/19 02:05:33;;;;;;;4.65;1.50;;;16.00;74.90;;;;;;5032982;28;20025;-67
2021/05/19 02:08:00;;;;;;;4.10;1.40;;;16.00;75.00;;;;;;5032803;28;20037;-66
2021/05/19 02:10:26;;;;;;;5.28;1.42;;;15.90;74.90;;;;;;5032783;28;20505;-66
2021/05/19 02:12:52;;;;;;;3.72;1.73;;;16.00;75.10;;;;;;5014905;28;20109;-65
2021/05/19 02:15:18;;;;;;;5.18;1.63;;;15.90;75.00;;;;;;5014372;28;20033;-66
2021/05/19 02:17:46;;;;;;;6.03;1.90;;;15.90;75.10;;;;;;5032583;28;20034;-65
2021/05/19 02:20:18;;;;;;;4.43;1.63;;;16.00;75.60;;;;;;5032530;28;20103;-65
2021/05/19 02:22:44;;;;;;;3.83;1.70;;;15.90;75.10;;;;;;5032232;28;20029;-67
2021/05/19 02:25:10;;;;;;;4.22;1.63;;;15.90;75.20;;;;;;5031088;28;20435;-66
2021/05/19 02:27:36;;;;;;;6.50;2.10;;;15.90;75.30;;;;;;5032229;28;20029;-66
2021/05/19 02:30:05;;;;;;;4.28;1.63;;;15.90;75.20;;;;;;5014377;28;20529;-65
2021/05/19 02:32:31;;;;;;;4.28;1.45;;;15.90;75.20;;;;;;5031746;28;20091;-65
2021/05/19 02:34:56;;;;;;;4.47;1.65;;;15.90;75.40;;;;;;5014656;28;20025;-65
2021/05/19 02:37:22;;;;;;;3.75;1.60;;;15.90;75.40;;;;;;5014638;28;20436;-66
2021/05/19 02:39:48;;;;;;;5.80;2.00;;;15.80;75.40;;;;;;5014321;28;20105;-65
2021/05/19 02:42:13;;;;;;;3.22;1.52;;;15.80;75.40;;;;;;5032425;28;20025;-66
2021/05/19 02:44:39;;;;;;;3.72;1.83;;;15.90;75.50;;;;;;5014149;28;20029;-66
2021/05/19 02:47:05;;;;;;;3.53;1.50;;;15.80;75.40;;;;;;5014728;28;20022;-66
2021/05/19 02:49:31;;;;;;;3.35;1.50;;;15.80;75.50;;;;;;5005991;28;20021;-67
2021/05/19 02:51:57;;;;;;;4.72;2.00;;;15.80;75.60;;;;;;5003203;28;20440;-65
2021/05/19 02:54:23;;;;;;;5.00;1.60;;;15.80;75.70;;;;;;4999437;28;20036;-65
2021/05/19 02:56:48;;;;;;;5.57;1.50;;;15.80;75.60;;;;;;5012304;28;20038;-65
2021/05/19 02:59:14;;;;;;;3.63;1.50;;;15.80;75.70;;;;;;5013564;28;20061;-66
2021/05/19 03:01:40;;;;;;;5.45;1.60;;;15.70;75.70;;;;;;4994688;28;20022;-68
2021/05/19 03:04:06;;;;;;;4.30;1.70;;;15.80;75.80;;;;;;5007846;28;20374;-66
2021/05/19 03:06:31;;;;;;;4.90;1.90;;;15.70;75.70;;;;;;5012843;28;20029;-66
2021/05/19 03:08:57;;;;;;;4.38;1.70;;;15.80;75.80;;;;;;4999264;28;20029;-67
2021/05/19 03:11:23;;;;;;;3.25;1.50;;;15.70;75.80;;;;;;5014001;28;20044;-66
2021/05/19 03:13:49;;;;;;;3.20;1.50;;;15.70;75.80;;;;;;5007977;28;20400;-66
2021/05/19 03:16:14;;;;;;;9.68;1.70;;;15.70;75.80;;;;;;5031807;28;20018;-66
2021/05/19 03:18:40;;;;;;;3.45;1.60;;;15.70;75.80;;;;;;5007375;28;20109;-66
2021/05/19 03:21:06;;;;;;;3.70;1.60;;;15.70;75.70;;;;;;5020988;28;20026;-66
2021/05/19 03:23:32;;;;;;;3.20;1.52;;;15.70;75.70;;;;;;5002031;28;20051;-66
2021/05/19 03:25:58;;;;;;;3.38;1.63;;;15.70;75.80;;;;;;5014009;28;20437;-66
2021/05/19 03:28:24;;;;;;;5.20;1.45;;;15.70;75.80;;;;;;5026667;28;20025;-66
2021/05/19 03:30:50;;;;;;;6.38;1.75;;;15.70;75.90;;;;;;4994321;28;20555;-66
2021/05/19 03:33:16;;;;;;;4.78;1.70;;;15.70;76.00;;;;;;5015746;28;20060;-66
2021/05/19 03:35:42;;;;;;;3.97;1.80;;;15.70;76.00;;;;;;4993910;28;20026;-66
2021/05/19 03:38:08;;;;;;;6.13;1.77;;;15.70;75.90;;;;;;5012778;28;20481;-66
2021/05/19 03:40:34;;;;;;;4.38;1.73;;;15.70;76.00;;;;;;5031123;28;20116;-66
2021/05/19 03:42:59;;;;;;;3.72;1.70;;;15.70;76.00;;;;;;5011964;28;20029;-65
2021/05/19 03:45:26;;;;;;;4.15;1.83;;;15.70;76.00;;;;;;5011787;28;20068;-66
2021/05/19 03:47:53;;;;;;;4.03;1.80;;;15.70;76.00;;;;;;5010477;28;20037;-65
2021/05/19 03:50:28;;;;;;;5.00;1.90;;;15.70;76.00;;;;;;5009458;28;20381;-66
2021/05/19 03:52:56;;;;;;;2.90;1.70;;;15.70;76.00;;;;;;5015302;28;20481;-66
2021/05/19 03:55:22;;;;;;;4.68;1.88;;;15.70;76.00;;;;;;5031080;28;20544;-66
2021/05/19 03:57:48;;;;;;;4.15;1.80;;;15.70;76.00;;;;;;5031391;28;20021;-66
2021/05/19 04:00:17;;;;;;;4.28;1.80;;;15.70;76.10;;;;;;5031036;28;20025;-66
2021/05/19 04:02:49;;;;;;;4.25;1.90;;;15.70;76.00;;;;;;5013120;28;20036;-66
2021/05/19 04:05:20;;;;;;;3.55;1.63;;;15.70;76.10;;;;;;5030446;28;20034;-66
2021/05/19 04:07:48;;;;;;;5.38;1.80;;;15.70;76.10;;;;;;5013545;28;20396;-67
2021/05/19 04:10:14;;;;;;;3.95;1.98;;;15.70;76.10;;;;;;5004341;28;20489;-65
2021/05/19 04:12:39;;;;;;;6.13;2.10;;;15.70;76.00;;;;;;5029509;28;20030;-65
2021/05/19 04:15:06;;;;;;;4.18;1.98;;;15.70;76.00;;;;;;5030993;28;20029;-65
2021/05/19 04:17:32;;;;;;;5.15;2.22;;;15.70;76.10;;;;;;5030833;28;20388;-67
2021/05/19 04:19:57;;;;;;;3.88;2.03;;;15.70;76.00;;;;;;5031090;28;20010;-66
2021/05/19 04:22:23;;;;;;;5.53;1.98;;;15.70;76.10;;;;;;5021424;28;20025;-66
2021/05/19 04:24:49;;;;;;;5.47;2.30;;;15.70;76.20;;;;;;5012845;28;20113;-65
2021/05/19 04:27:14;;;;;;;6.80;2.70;;;15.70;76.00;;;;;;5021498;28;20374;-66
2021/05/19 04:29:40;;;;;;;6.43;2.00;;;15.70;76.00;;;;;;4987549;28;20033;-65
2021/05/19 04:32:06;;;;;;;4.15;2.40;;;15.70;76.00;;;;;;5018592;28;20033;-66
2021/05/19 04:34:31;;;;;;;5.35;2.28;;;15.70;75.90;;;;;;5024505;28;20555;-66
2021/05/19 04:36:57;;;;;;;4.57;2.13;;;15.70;75.90;;;;;;5019941;28;20025;-65
2021/05/19 04:39:22;;;;;;;3.75;2.10;;;15.80;76.10;;;;;;5007810;28;20025;-66
2021/05/19 04:41:48;;;;;;;4.63;2.30;;;15.70;76.00;;;;;;5010624;28;20389;-66
2021/05/19 04:44:14;;;;;;;5.38;2.42;;;15.80;76.10;;;;;;5020435;28;20103;-65
2021/05/19 04:46:39;;;;;;;5.70;2.22;;;15.80;76.10;;;;;;5027144;28;20021;-66
2021/05/19 04:49:05;;;;;;;4.80;2.10;;;15.80;76.00;;;;;;5014352;28;20471;-66
2021/05/19 04:51:31;;;;;;;4.85;2.05;;;15.80;76.00;;;;;;5008836;28;20026;-65
2021/05/19 04:53:56;;;;;;;6.00;2.40;;;15.80;76.00;;;;;;5008511;28;20548;-66
2021/05/19 04:56:22;;;;;;;6.05;2.42;;;15.80;75.90;;;;;;5007408;28;20509;-66
2021/05/19 04:58:48;;;;;;;6.22;2.35;;;15.80;75.90;;;;;;5007185;28;20030;-67
2021/05/19 05:01:13;;;;;;;6.45;2.90;;;15.80;76.10;;;;;;5021847;28;20033;-66
2021/05/19 05:03:39;;;;;;;6.22;3.45;;;15.80;76.30;;;;;;5026148;28;20025;-66
2021/05/19 05:06:04;;;;;;;8.18;4.85;;;15.80;75.80;;;;;;5021966;28;20052;-66
2021/05/19 05:08:30;;;;;;;9.20;4.78;;;15.80;75.60;;;;;;5026233;28;20029;-66
2021/05/19 05:10:56;;;;;;;9.70;4.57;;;15.80;76.10;;;;;;5026804;28;20083;-66
2021/05/19 05:13:23;;;;;;;10.98;4.32;;;15.80;75.60;;;;;;5025334;28;20029;-65
2021/05/19 05:15:49;;;;;;;7.88;4.30;;;15.80;75.70;;;;;;5008137;28;20034;-65
2021/05/19 05:18:14;;;;;;;10.23;4.13;;;15.80;75.90;;;;;;5004510;28;20988;-64
2021/05/19 05:20:40;;;;;;;9.68;3.78;;;15.80;75.80;;;;;;5008381;28;20133;-67
2021/05/19 05:23:06;;;;;;;6.88;3.83;;;15.90;76.00;;;;;;5001144;28;20504;-65
2021/05/19 05:25:32;;;;;;;12.98;3.90;;;15.90;76.20;;;;;;5003315;28;20064;-65
2021/05/19 05:27:57;;;;;;;14.20;4.07;;;15.90;75.90;;;;;;4992685;28;20034;-69
2021/05/19 05:30:23;;;;;;;12.13;4.10;;;15.90;76.10;;;;;;4984161;28;20034;-65
2021/05/19 05:32:49;;;;;;;13.70;3.47;;;15.90;76.10;;;;;;4985905;28;20379;-65
2021/05/19 05:35:15;;;;;;;10.90;3.67;;;15.90;76.40;;;;;;4990992;28;20037;-66
2021/05/19 05:37:41;;;;;;;8.90;3.22;;;15.90;76.00;;;;;;4988725;28;20026;-69
2021/05/19 05:40:08;;;;;;;9.73;3.40;;;15.90;76.30;;;;;;4998625;28;20210;-66
2021/05/19 05:42:34;;;;;;;9.35;3.40;;;15.90;76.80;;;;;;4989084;28;20117;-69
2021/05/19 05:45:01;;;;;;;8.68;3.33;;;16.00;76.10;;;;;;4985033;28;20022;-66
2021/05/19 05:47:26;;;;;;;11.75;4.40;;;16.00;76.20;;;;;;4988492;28;20040;-65
2021/05/19 05:49:52;;;;;;;10.00;4.68;;;15.90;76.10;;;;;;4984528;28;20042;-65
2021/05/19 05:52:18;;;;;;;11.48;5.55;;;16.00;75.90;;;;;;4992149;28;20072;-67
2021/05/19 05:54:44;;;;;;;10.48;5.68;;;16.00;75.30;;;;;;5000810;28;20034;-65
2021/05/19 05:57:10;;;;;;;15.57;5.43;;;16.00;74.90;;;;;;5005889;28;20053;-66
2021/05/19 05:59:36;;;;;;;16.65;5.82;;;16.00;74.60;;;;;;5005263;28;20104;-64
2021/05/19 06:02:02;;;;;;;15.43;5.35;;;16.00;75.00;;;;;;5001618;28;20489;-65
2021/05/19 06:04:27;;;;;;;10.52;4.70;;;16.00;75.10;;;;;;5005221;28;20056;-67
2021/05/19 06:06:53;;;;;;;9.18;4.78;;;16.10;74.50;;;;;;5005642;28;20048;-65
2021/05/19 06:09:18;;;;;;;10.93;4.75;;;16.10;74.60;;;;;;5003775;28;20030;-65
2021/05/19 06:11:44;;;;;;;9.40;4.60;;;16.10;74.80;;;;;;5007132;28;20493;-66
2021/05/19 06:14:09;;;;;;;9.70;4.22;;;16.20;74.70;;;;;;5005969;28;20076;-65
2021/05/19 06:16:35;;;;;;;12.27;4.30;;;16.20;74.70;;;;;;5005932;28;20033;-65
2021/05/19 06:19:01;;;;;;;9.80;3.95;;;16.20;74.70;;;;;;5004692;28;20113;-65
2021/05/19 06:21:26;;;;;;;9.73;3.72;;;16.20;74.60;;;;;;5006815;28;20030;-66
2021/05/19 06:23:52;;;;;;;8.38;3.35;;;16.20;74.60;;;;;;5022811;28;20436;-64
2021/05/19 06:26:18;;;;;;;8.30;3.97;;;16.20;74.50;;;;;;5008586;28;20033;-65
2021/05/19 06:28:43;;;;;;;11.32;4.10;;;16.20;74.40;;;;;;5021625;28;20030;-65
2021/05/19 06:31:09;;;;;;;10.13;3.80;;;16.20;73.80;;;;;;5026415;28;20096;-66
2021/05/19 06:33:34;;;;;;;7.70;3.58;;;16.20;74.20;;;;;;5025099;28;20032;-65
2021/05/19 06:36:00;;;;;;;6.57;3.38;;;16.20;74.30;;;;;;5014430;28;20079;-66
2021/05/19 06:38:26;;;;;;;7.03;3.58;;;16.30;74.30;;;;;;5006248;28;20033;-65
2021/05/19 06:40:52;;;;;;;8.65;3.65;;;16.30;74.20;;;;;;4998029;28;20437;-67
2021/05/19 06:43:18;;;;;;;7.93;3.42;;;16.30;74.10;;;;;;5015292;28;20040;-65
2021/05/19 06:45:43;;;;;;;8.77;3.58;;;16.40;74.00;;;;;;5014768;28;20014;-65
2021/05/19 06:48:09;;;;;;;7.70;3.17;;;16.40;73.80;;;;;;5013507;28;20061;-65
2021/05/19 06:50:34;;;;;;;6.32;3.30;;;16.40;73.60;;;;;;5018368;28;20029;-65
2021/05/19 06:53:00;;;;;;;11.85;3.25;;;16.50;73.40;;;;;;5025333;28;20068;-65
2021/05/19 06:55:26;;;;;;;7.97;3.40;;;16.50;72.90;;;;;;5006595;28;20376;-66
2021/05/19 06:57:52;;;;;;;6.78;3.58;;;16.50;73.30;;;;;;5023872;28;20464;-65
2021/05/19 07:00:19;;;;;;;8.55;3.50;;;16.50;73.20;;;;;;5025657;28;20136;-65
2021/05/19 07:02:44;;;;;;;7.20;3.35;;;16.50;73.20;;;;;;5024346;28;20163;-65
2021/05/19 07:05:10;;;;;;;6.57;3.45;;;16.50;73.00;;;;;;5025533;28;20124;-65
2021/05/19 07:07:36;;;;;;;5.47;3.30;;;16.50;72.80;;;;;;5008134;28;20029;-66
2021/05/19 07:10:03;;;;;;;9.65;3.35;;;16.50;72.90;;;;;;5025315;28;20033;-65
2021/05/19 07:12:29;;;;;;;6.47;3.33;;;16.50;73.10;;;;;;5025825;28;20033;-66
2021/05/19 07:14:58;;;;;;;6.93;3.10;;;16.50;72.90;;;;;;5007452;28;20708;-65
2021/05/19 07:17:24;;;;;;;8.10;3.00;;;16.50;72.90;;;;;;5007477;28;20308;-65
2021/05/19 07:19:50;;;;;;;6.20;3.10;;;16.50;73.00;;;;;;5025910;28;20609;-66
2021/05/19 07:22:16;;;;;;;7.28;2.95;;;16.50;72.60;;;;;;5007615;28;20033;-65
2021/05/19 07:24:41;;;;;;;6.97;3.30;;;16.60;72.60;;;;;;5008066;28;20188;-66
2021/05/19 07:27:07;;;;;;;7.78;3.70;;;16.60;72.70;;;;;;5007383;28;20041;-65
2021/05/19 07:29:32;;;;;;;7.70;2.92;;;16.60;72.50;;;;;;5025764;28;20029;-66
2021/05/19 07:31:59;;;;;;;7.15;2.90;;;16.60;73.10;;;;;;5007495;28;20047;-65
2021/05/19 07:34:25;;;;;;;6.25;2.72;;;16.70;72.20;;;;;;5023218;28;20062;-65
2021/05/19 07:36:50;;;;;;;7.55;2.60;;;16.70;71.90;;;;;;5023896;28;20041;-65
2021/05/19 07:39:16;;;;;;;5.50;2.75;;;16.70;71.50;;;;;;5010514;28;20026;-66
2021/05/19 07:41:41;;;;;;;7.40;3.30;;;16.80;71.30;;;;;;5024997;28;20496;-65
2021/05/19 07:44:07;;;;;;;6.32;2.65;;;16.80;71.70;;;;;;5012276;28;20104;-65
2021/05/19 07:46:33;;;;;;;7.13;2.60;;;16.90;71.00;;;;;;5012658;28;20400;-66
2021/05/19 07:48:59;;;;;;;6.18;2.63;;;17.00;70.50;;;;;;5014956;28;20021;-67
2021/05/19 07:51:25;;;;;;;5.43;2.33;;;17.20;70.20;;;;;;5006587;28;20025;-66
2021/05/19 07:53:53;;;;;;;6.13;2.88;;;17.30;69.60;;;;;;5025061;28;20122;-65
2021/05/19 07:56:29;;;;;;;5.45;2.80;;;17.40;69.40;;;;;;5023786;28;20033;-67
2021/05/19 07:59:10;;;;;;;5.88;2.63;;;17.40;69.20;;;;;;5010320;28;20067;-65
2021/05/19 08:04:05;;;;;;;5.00;2.67;;;17.30;69.00;;;;;;5007634;28;20128;-64
2021/05/19 08:06:31;;;;;;;8.43;2.38;;;17.30;69.30;;;;;;5017964;28;20025;-65
2021/05/19 08:08:57;;;;;;;8.07;2.92;;;17.30;69.40;;;;;;5025004;28;20033;-65
2021/05/19 08:11:22;;;;;;;6.40;2.70;;;17.30;69.50;;;;;;4990001;28;20033;-66
2021/05/19 08:13:48;;;;;;;6.28;2.80;;;17.20;69.50;;;;;;4988935;28;20397;-65
2021/05/19 08:16:15;;;;;;;6.38;2.78;;;17.20;69.60;;;;;;5011815;28;20037;-65
2021/05/19 08:18:40;;;;;;;4.20;2.35;;;17.20;69.40;;;;;;5017250;28;20039;-67
2021/05/19 08:21:06;;;;;;;6.82;2.47;;;17.20;69.70;;;;;;5017792;28;20051;-66
2021/05/19 08:23:33;;;;;;;5.00;2.45;;;17.20;69.80;;;;;;5017918;28;20390;-65
2021/05/19 08:25:59;;;;;;;5.20;2.55;;;17.20;69.20;;;;;;5012186;28;20034;-65
2021/05/19 08:28:25;;;;;;;6.50;2.95;;;17.20;69.50;;;;;;5012750;28;20036;-66
2021/05/19 08:30:50;;;;;;;6.90;3.30;;;17.20;69.50;;;;;;5015617;28;20030;-64
2021/05/19 08:33:16;;;;;;;8.70;3.88;;;17.20;69.70;;;;;;5020398;28;20025;-65
2021/05/19 08:35:42;;;;;;;14.80;8.60;;;17.20;69.20;;;;;;5006374;28;20048;-64
2021/05/19 08:38:08;;;;;;;38.53;26.25;;;17.30;69.90;;;;;;5010896;28;20030;-66
2021/05/19 08:40:34;;;;;;;42.38;28.50;;;17.30;69.80;;;;;;5026135;28;20022;-66
2021/05/19 08:43:00;;;;;;;54.30;36.03;;;17.30;69.40;;;;;;5020381;28;20389;-65
2021/05/19 08:45:26;;;;;;;63.97;42.17;;;17.30;69.90;;;;;;5017479;28;20042;-65
2021/05/19 08:48:03;;;;;;;59.80;38.60;;;17.30;69.70;;;;;;5013318;28;20040;-64
2021/05/19 08:50:30;;;;;;;63.05;41.97;;;17.30;69.40;;;;;;4999504;28;20037;-65
2021/05/19 08:52:57;;;;;;;63.15;41.75;;;17.40;69.70;;;;;;5027153;28;20126;-64
2021/05/19 08:55:23;;;;;;;58.45;38.67;;;17.40;69.70;;;;;;5020702;28;20545;-65
2021/05/19 08:57:49;;;;;;;58.60;39.50;;;17.40;69.50;;;;;;5016539;28;20152;-65
2021/05/19 09:00:15;;;;;;;55.05;37.53;;;17.40;69.50;;;;;;5019505;28;20067;-65
2021/05/19 09:02:41;;;;;;;50.17;34.20;;;17.50;69.30;;;;;;5018858;28;20392;-65
2021/05/19 09:05:08;;;;;;;51.30;35.42;;;17.50;69.40;;;;;;5016631;28;20026;-68
2021/05/19 09:07:35;;;;;;;50.63;34.60;;;17.50;69.20;;;;;;5000874;28;20425;-67
2021/05/19 09:10:16;;;;;;;42.85;28.65;;;17.50;69.80;;;;;;5000183;28;20032;-65
2021/05/19 09:12:41;;;;;;;30.00;21.15;;;17.60;68.60;;;;;;5003072;28;20041;-66
2021/05/19 09:15:07;;;;;;;39.58;26.95;;;17.60;68.20;;;;;;5016042;28;20029;-66
2021/05/19 09:17:34;;;;;;;39.83;29.13;;;17.70;68.40;;;;;;5016290;28;20034;-66
2021/05/19 09:20:11;;;;;;;40.78;27.77;;;17.70;68.50;;;;;;5021759;28;20087;-64
2021/05/19 09:22:39;;;;;;;39.58;26.90;;;17.80;68.50;;;;;;5004423;28;20493;-66
2021/05/19 09:25:29;;;;;;;37.00;26.38;;;17.90;68.20;;;;;;4992551;28;20104;-66
2021/05/19 09:27:57;;;;;;;38.58;25.23;;;17.90;68.30;;;;;;4993951;28;20084;-66
2021/05/19 09:30:44;;;;;;;38.42;25.10;;;17.90;68.20;;;;;;4999334;28;20046;-66
2021/05/19 09:33:17;;;;;;;36.65;24.15;;;17.90;67.90;;;;;;5005869;28;20551;-64
2021/05/19 09:35:45;;;;;;;38.90;25.17;;;18.00;68.00;;;;;;4998104;28;20045;-67
2021/05/19 09:38:31;;;;;;;33.58;23.02;;;18.10;67.90;;;;;;4996579;28;20045;-66
2021/05/19 09:41:29;;;;;;;36.03;23.15;;;18.20;67.50;;;;;;4988610;28;20568;-66
2021/05/19 09:43:57;;;;;;;32.17;22.40;;;18.30;67.40;;;;;;4994359;28;20058;-67
2021/05/19 09:46:33;;;;;;;31.95;22.55;;;18.40;66.80;;;;;;4999623;28;20025;-64
2021/05/19 09:49:20;;;;;;;34.70;21.60;;;18.40;66.80;;;;;;5006012;28;20098;-65
2021/05/19 09:51:51;;;;;;;28.02;20.40;;;18.50;66.50;;;;;;5005260;28;20084;-68
2021/05/19 09:54:45;;;;;;;30.30;20.15;;;18.50;66.40;;;;;;5005871;28;20080;-65
2021/05/19 09:57:13;;;;;;;31.50;20.50;;;18.50;66.30;;;;;;4994630;28;20038;-66
2021/05/19 09:59:44;;;;;;;30.02;20.02;;;18.50;66.10;;;;;;5001553;28;20052;-67
2021/05/19 10:02:12;;;;;;;29.33;19.65;;;18.50;66.00;;;;;;5005222;28;20101;-66
2021/05/19 10:04:48;;;;;;;28.13;18.70;;;18.50;66.20;;;;;;5002574;28;20084;-66
2021/05/19 10:07:18;;;;;;;27.50;17.70;;;18.40;66.10;;;;;;4997592;28;20520;-69
2021/05/19 10:09:44;;;;;;;31.98;17.63;;;18.40;65.70;;;;;;4993945;28;20035;-67
2021/05/19 10:12:12;;;;;;;30.80;17.83;;;18.40;66.00;;;;;;4987279;28;20032;-66
2021/05/19 10:14:39;;;;;;;28.67;17.27;;;18.70;66.40;;;;;;4985415;28;20512;-67
2021/05/19 10:17:13;;;;;;;26.08;15.85;;;19.10;64.40;;;;;;4986069;28;20508;-66
2021/05/19 10:19:57;;;;;;;26.08;16.17;;;19.10;63.90;;;;;;4985330;28;20788;-66
2021/05/19 10:22:25;;;;;;;25.25;15.82;;;19.00;63.90;;;;;;4991201;28;20033;-67
2021/05/19 10:25:06;;;;;;;25.60;16.08;;;18.90;64.00;;;;;;5006272;28;20097;-66
2021/05/19 10:27:56;;;;;;;26.20;15.05;;;18.80;64.30;;;;;;5005047;28;20313;-67
2021/05/19 10:30:46;;;;;;;23.92;15.27;;;18.70;64.30;;;;;;5006608;28;20072;-66
2021/05/19 10:33:26;;;;;;;22.90;14.70;;;18.60;64.50;;;;;;4988620;28;20485;-67
2021/05/19 10:35:53;;;;;;;25.85;15.45;;;18.60;65.00;;;;;;4988448;28;20022;-66
2021/05/19 10:38:27;;;;;;;26.48;14.63;;;18.70;64.50;;;;;;4988324;28;20034;-66
2021/05/19 10:40:55;;;;;;;23.33;13.77;;;18.70;64.80;;;;;;4988847;28;20444;-67
2021/05/19 10:43:21;;;;;;;21.85;13.38;;;18.60;64.60;;;;;;5005889;28;20026;-66
2021/05/19 10:45:51;;;;;;;19.83;12.73;;;18.90;65.30;;;;;;4988305;28;20424;-66
2021/05/19 10:48:28;;;;;;;23.33;13.20;;;19.30;64.00;;;;;;5006246;28;20029;-67
2021/05/19 10:51:00;;;;;;;23.40;12.80;;;19.60;62.90;;;;;;5006246;28;20030;-67
2021/05/19 10:59:15;;;;;;;20.45;11.93;;;19.10;62.60;;;;;;5001408;28;20084;-65
2021/05/19 11:01:43;;;;;;;20.20;11.80;;;18.90;63.10;;;;;;5005739;28;20337;-66
2021/05/19 11:04:13;;;;;;;19.63;11.82;;;18.80;63.40;;;;;;5005412;28;20022;-65
2021/05/19 11:06:58;;;;;;;17.38;10.93;;;18.80;63.80;;;;;;4987859;28;20025;-66
2021/05/19 11:09:27;;;;;;;17.23;11.05;;;19.10;64.50;;;;;;4988568;28;20042;-67
2021/05/19 11:12:21;;;;;;;18.15;11.65;;;19.20;62.40;;;;;;5005954;28;20104;-66
2021/05/19 11:14:50;;;;;;;16.98;10.35;;;19.00;62.80;;;;;;5005213;28;20547;-65
2021/05/19 11:17:28;;;;;;;17.73;10.52;;;18.90;63.00;;;;;;4987858;28;20397;-66
2021/05/19 11:19:54;;;;;;;16.88;10.30;;;19.00;63.70;;;;;;5005315;28;20022;-67
2021/05/19 11:22:21;;;;;;;15.43;9.93;;;19.20;63.40;;;;;;5003824;28;20397;-66
2021/05/19 11:24:57;;;;;;;16.90;9.65;;;19.20;62.50;;;;;;5005291;28;20022;-65
2021/05/19 11:27:26;;;;;;;17.17;9.45;;;19.40;63.00;;;;;;5005669;28;20421;-66
2021/05/19 11:29:52;;;;;;;15.60;8.88;;;19.60;62.00;;;;;;5005426;28;20054;-66
2021/05/19 11:32:20;;;;;;;14.63;9.27;;;19.70;61.10;;;;;;4987521;28;20041;-66
2021/05/19 11:34:46;;;;;;;16.20;8.82;;;19.80;61.30;;;;;;4987408;28;20028;-66
2021/05/19 11:37:14;;;;;;;15.07;10.00;;;19.90;61.00;;;;;;5005247;28;20508;-66
2021/05/19 11:39:50;;;;;;;13.30;8.15;;;19.80;61.00;;;;;;5005164;28;20029;-66
2021/05/19 11:42:51;;;;;;;14.77;8.25;;;19.80;60.40;;;;;;4987476;28;20492;-67
2021/05/19 11:45:23;;;;;;;13.43;7.95;;;19.50;60.90;;;;;;5004941;28;20034;-65
2021/05/19 11:47:49;;;;;;;13.30;8.10;;;19.30;61.40;;;;;;4987089;28;20096;-66
2021/05/19 11:50:24;;;;;;;13.68;7.40;;;19.30;61.90;;;;;;5005416;28;20556;-67
2021/05/19 11:52:57;;;;;;;12.57;7.88;;;19.40;61.60;;;;;;5005043;28;20045;-66
2021/05/19 11:55:49;;;;;;;12.88;7.63;;;19.40;61.90;;;;;;5004961;28;20034;-66
2021/05/19 11:58:27;;;;;;;12.63;7.68;;;19.40;61.50;;;;;;5005252;28;20531;-66
2021/05/19 12:01:10;;;;;;;11.88;6.78;;;19.50;61.80;;;;;;5004853;28;20030;-66
2021/05/19 12:03:38;;;;;;;13.13;6.97;;;19.50;61.40;;;;;;4995035;28;20022;-65
2021/05/19 12:06:07;;;;;;;13.45;7.25;;;19.40;61.30;;;;;;5002434;28;20037;-66
2021/05/19 12:08:36;;;;;;;11.23;6.90;;;19.40;61.50;;;;;;4997175;28;20050;-66
2021/05/19 12:11:24;;;;;;;13.50;6.70;;;19.40;62.00;;;;;;4996473;28;20023;-65
2021/05/19 12:13:55;;;;;;;13.55;6.97;;;19.30;61.80;;;;;;4999747;28;20030;-65
2021/05/19 12:16:32;;;;;;;10.93;6.13;;;19.40;62.20;;;;;;4998931;28;20049;-65
2021/05/19 12:18:59;;;;;;;10.48;5.90;;;19.40;62.40;;;;;;4967923;28;20031;-64
2021/05/19 12:21:25;;;;;;;11.90;6.38;;;19.40;62.30;;;;;;4986802;28;20023;-66
2021/05/19 12:23:51;;;;;;;11.95;6.07;;;19.40;62.10;;;;;;5020469;28;20080;-65
2021/05/19 12:26:19;;;;;;;12.85;5.95;;;19.30;61.80;;;;;;5007089;28;20045;-66
2021/05/19 12:28:45;;;;;;;11.73;5.60;;;19.30;61.90;;;;;;5024483;28;20059;-66
2021/05/19 12:31:28;;;;;;;11.35;5.55;;;19.30;62.20;;;;;;5024494;28;20056;-65
2021/05/19 12:33:54;;;;;;;9.55;5.50;;;19.30;62.40;;;;;;5024245;28;20026;-66
2021/05/19 12:36:40;;;;;;;13.30;4.97;;;19.30;61.90;;;;;;5015634;28;20033;-66
2021/05/19 12:39:07;;;;;;;18.38;5.20;;;19.30;62.10;;;;;;5020555;28;20109;-66
2021/05/19 12:41:45;;;;;;;10.20;5.03;;;19.30;62.10;;;;;;5015870;28;20104;-65
2021/05/19 12:44:16;;;;;;;10.43;4.63;;;19.30;62.10;;;;;;5006652;28;20030;-65
2021/05/19 12:46:56;;;;;;;12.13;5.13;;;19.30;62.10;;;;;;5024294;28;20026;-65
2021/05/19 12:49:22;;;;;;;9.27;4.43;;;19.30;62.00;;;;;;5024553;28;20035;-67
2021/05/19 12:51:52;;;;;;;9.23;5.00;;;19.20;62.00;;;;;;5006421;28;20128;-67
2021/05/19 12:54:28;;;;;;;9.65;4.53;;;19.30;62.10;;;;;;5022507;28;20022;-66
2021/05/19 12:57:08;;;;;;;11.65;4.68;;;19.30;62.20;;;;;;5023773;28;20415;-65